メインページ
METAR-TAF:

METAR-TAF

空港 :

徳島飛行場

徳島, 日本

緯度: 34-08N, 経度: 134-37E, 海抜: 8m

現時点の気象観測

当レポートは54分前の21:23(UTC)に作成
北西の風 5kt
気温 14°C
湿度 77%
気圧 1018 hPa
視程10km以上
高度1500ftの雲はほとんどない
高度3000ftの雲は散在している
高度6000ftの千切れ雲あり

METAR: RJOS 162123Z 31005KT 9999 FEW015 SCT030 BKN060 14/10 Q1018 RMK 1CU015 4CU030 7SC060 A3006

時間: 07:17 (22:17 UTC)


TAF: 見つかりません

4,000以上の空港の気象観測と天気予報(METAR報とTAF報)

利用可能な観測所は地図上に黄色い丸と赤い丸で示す。

丸の上にカーソルを重ねると観測所名を参照できる。

次にクリックすると気象観測と天気予報を参照できる。

マップの切り替え:黒色「×」印の緑ボタンをクリックして拡大、「-」印の緑ボタンをクリックして縮小、緑色の三角印をクリックして隣りの地図に切り替え


METAR-TAF: